Time;durP1;ratioP1;P1;durP2;ratioP2;P2;SDS_P1;SDS_P2;PMS_P1;PMS_P2;Temp;Humidity;BMP_temperature;BMP_pressure;BME280_temperature;BME280_humidity;BME280_pressure;Samples;Min_cycle;Max_cycle;Signal;HPM_P1;HPM_P2
2021/11/14 00:02:08;;;;;;;334.37;118.65;;;;;;;2.62;83.33;100804.67;1793906;79;21170;-84
2021/11/14 00:04:34;;;;;;;389.20;139.88;;;;;;;2.47;83.31;100807.45;1827821;78;20974;-85
2021/11/14 00:07:00;;;;;;;271.87;103.97;;;;;;;2.40;83.34;100811.45;1787117;80;20975;-85
2021/11/14 00:09:28;;;;;;;247.85;94.55;;;;;;;2.37;83.37;100812.99;1798108;78;20967;-83
2021/11/14 00:11:55;;;;;;;407.43;148.13;;;;;;;2.32;83.36;100821.67;1816468;78;21044;-84
2021/11/14 00:14:22;;;;;;;389.35;145.55;;;;;;;2.24;83.36;100824.48;1801694;79;21752;-85
2021/11/14 00:16:48;;;;;;;301.10;116.28;;;;;;;2.23;83.39;100828.05;1804709;79;21010;-84
2021/11/14 00:19:14;;;;;;;152.78;69.05;;;;;;;2.22;83.41;100829.84;1805133;79;21096;-85
2021/11/14 00:21:42;;;;;;;167.82;71.05;;;;;;;2.18;83.45;100824.42;1827685;78;21033;-85
2021/11/14 00:24:13;;;;;;;142.80;63.00;;;;;;;2.21;83.45;100830.81;1795717;79;20986;-85
2021/11/14 00:26:40;;;;;;;127.42;61.92;;;;;;;2.16;83.47;100836.85;1825370;78;21101;-86
2021/11/14 00:29:06;;;;;;;136.47;63.08;;;;;;;2.15;83.49;100839.10;1784983;79;21036;-86
2021/11/14 00:31:32;;;;;;;163.20;83.15;;;;;;;2.24;83.53;100836.33;1774494;79;21467;-87
2021/11/14 00:33:58;;;;;;;146.85;70.67;;;;;;;2.31;83.54;100835.80;1774349;79;21039;-86
2021/11/14 00:36:27;;;;;;;139.95;66.75;;;;;;;2.42;83.57;100842.47;1838085;77;20887;-86
2021/11/14 00:38:53;;;;;;;156.07;76.20;;;;;;;2.51;83.58;100840.50;1856298;77;21881;-87
2021/11/14 00:41:20;;;;;;;168.35;80.65;;;;;;;2.60;83.58;100843.45;1789298;80;21017;-86
2021/11/14 00:43:46;;;;;;;169.75;79.25;;;;;;;2.68;83.63;100847.67;1782260;79;20987;-86
2021/11/14 00:46:12;;;;;;;159.37;76.22;;;;;;;2.74;83.68;100846.79;1786934;79;21081;-87
2021/11/14 00:48:41;;;;;;;146.75;72.45;;;;;;;2.84;83.72;100852.23;1796269;79;20998;-86
2021/11/14 00:51:12;;;;;;;146.13;74.90;;;;;;;2.92;83.78;100855.98;1790415;79;21188;-85
2021/11/14 00:53:38;;;;;;;148.93;75.25;;;;;;;2.96;83.82;100857.92;1763949;81;21467;-86
2021/11/14 00:56:04;;;;;;;152.10;74.62;;;;;;;3.02;83.87;100856.19;1764942;81;21443;-84
2021/11/14 00:58:31;;;;;;;165.47;78.87;;;;;;;3.11;83.90;100856.83;1764943;81;21006;-86
2021/11/14 01:00:57;;;;;;;180.97;83.33;;;;;;;3.21;83.94;100863.11;1791834;80;21041;-87
2021/11/14 01:03:23;;;;;;;166.30;81.95;;;;;;;3.30;83.99;100858.50;1760697;81;21154;-85
2021/11/14 01:05:51;;;;;;;171.53;79.17;;;;;;;3.39;84.01;100860.45;1749339;80;21435;-85
2021/11/14 01:08:17;;;;;;;158.90;75.87;;;;;;;3.51;84.05;100863.52;1824502;78;21082;-86
2021/11/14 01:10:46;;;;;;;154.30;76.05;;;;;;;3.57;84.08;100857.41;1791930;80;21054;-85
2021/11/14 01:13:13;;;;;;;159.18;77.47;;;;;;;3.59;84.11;100866.06;1791899;80;21049;-85
2021/11/14 01:15:40;;;;;;;160.07;75.78;;;;;;;3.60;84.14;100864.61;1814264;78;21448;-85
2021/11/14 01:18:06;;;;;;;155.15;75.03;;;;;;;3.66;84.16;100860.19;1770393;79;21014;-86
2021/11/14 01:20:35;;;;;;;146.65;73.15;;;;;;;3.76;84.20;100859.05;1796106;78;20982;-85
2021/11/14 01:23:02;;;;;;;134.97;71.25;;;;;;;3.79;84.21;100860.13;1823894;78;20998;-86
2021/11/14 01:25:28;;;;;;;160.12;73.72;;;;;;;3.81;84.28;100860.84;1791847;80;21033;-87
2021/11/14 01:27:54;;;;;;;157.18;74.62;;;;;;;3.83;84.30;100858.95;1790631;80;21109;-85
2021/11/14 01:30:25;;;;;;;150.03;76.92;;;;;;;3.84;84.30;100860.61;1820623;78;21050;-83
2021/11/14 01:32:51;;;;;;;163.70;79.67;;;;;;;3.87;84.32;100869.12;1800640;78;20982;-85
2021/11/14 01:35:17;;;;;;;152.78;77.22;;;;;;;3.95;84.37;100876.00;1807129;78;20974;-85
2021/11/14 01:37:44;;;;;;;154.32;77.45;;;;;;;4.03;84.41;100875.42;1805684;78;21019;-87
2021/11/14 01:40:13;;;;;;;156.52;77.82;;;;;;;4.09;84.44;100874.95;1785254;79;21528;-86
2021/11/14 01:42:40;;;;;;;166.43;80.87;;;;;;;4.13;84.46;100875.08;1834762;77;21093;-84
2021/11/14 01:45:07;;;;;;;165.00;78.28;;;;;;;4.17;84.51;100875.69;1844753;77;21048;-86
2021/11/14 01:47:33;;;;;;;152.15;73.60;;;;;;;4.17;84.51;100873.05;1794540;79;21131;-86
2021/11/14 01:49:59;;;;;;;165.12;82.00;;;;;;;4.14;84.52;100874.13;1794891;79;21043;-87
2021/11/14 01:52:29;;;;;;;164.57;80.22;;;;;;;4.13;84.53;100879.03;1795407;78;21398;-87
2021/11/14 01:54:55;;;;;;;123.65;59.55;;;;;;;4.14;84.56;100873.28;1806243;78;21471;-86
2021/11/14 01:57:21;;;;;;;149.07;76.85;;;;;;;4.16;84.57;100877.48;1824115;78;21933;-86
2021/11/14 01:59:48;;;;;;;141.05;70.57;;;;;;;4.19;84.58;100879.88;1779922;78;21508;-85
2021/11/14 02:02:14;;;;;;;143.25;71.92;;;;;;;4.23;84.63;100883.97;1769938;80;21703;-85
2021/11/14 02:04:41;;;;;;;144.45;74.58;;;;;;;4.29;84.66;100878.21;1769851;81;21665;-86
2021/11/14 02:07:08;;;;;;;135.82;66.95;;;;;;;4.34;84.68;100870.79;1769718;80;21002;-87
2021/11/14 02:09:35;;;;;;;133.43;69.67;;;;;;;4.39;84.69;100873.93;1776800;79;21510;-85
2021/11/14 02:12:02;;;;;;;133.10;68.05;;;;;;;4.42;84.70;100872.84;1806594;78;20985;-85
2021/11/14 02:14:28;;;;;;;127.00;67.22;;;;;;;4.41;84.73;100868.51;1795442;79;21022;-86
2021/11/14 02:16:55;;;;;;;138.43;70.60;;;;;;;4.41;84.76;100870.67;1814743;78;21147;-86
2021/11/14 02:19:21;;;;;;;137.55;69.58;;;;;;;4.45;84.79;100872.13;1763339;81;21479;-85
2021/11/14 02:21:47;;;;;;;140.75;71.47;;;;;;;4.52;84.78;100875.97;1798670;78;20993;-85
2021/11/14 02:24:13;;;;;;;134.30;67.05;;;;;;;4.58;84.79;100873.79;1785167;79;21006;-86
2021/11/14 02:26:39;;;;;;;127.47;67.70;;;;;;;4.64;84.79;100879.46;1823502;78;21113;-85
2021/11/14 02:29:05;;;;;;;117.53;61.37;;;;;;;4.70;84.80;100878.13;1763865;80;21162;-85
2021/11/14 02:31:32;;;;;;;114.80;57.98;;;;;;;4.73;84.81;100880.05;1791222;80;21521;-85
2021/11/14 02:33:58;;;;;;;109.07;54.03;;;;;;;4.78;84.80;100879.69;1758703;80;21001;-86
2021/11/14 02:36:24;;;;;;;119.13;58.60;;;;;;;4.83;84.82;100885.44;1823726;78;21541;-86
2021/11/14 02:38:51;;;;;;;119.30;58.30;;;;;;;4.81;84.83;100886.05;1821966;78;21003;-85
2021/11/14 02:41:17;;;;;;;110.10;55.15;;;;;;;4.80;84.85;100887.00;1789611;80;21171;-86
2021/11/14 02:43:44;;;;;;;144.68;64.92;;;;;;;4.78;84.85;100890.26;1789471;80;21046;-86
2021/11/14 02:46:11;;;;;;;132.12;62.58;;;;;;;4.80;84.88;100895.77;1809431;79;21003;-86
2021/11/14 02:48:38;;;;;;;113.50;55.43;;;;;;;4.81;84.89;100892.18;1789348;80;21741;-86
2021/11/14 02:51:07;;;;;;;106.12;52.83;;;;;;;4.80;84.93;100896.25;1824298;78;21034;-86
2021/11/14 02:53:33;;;;;;;102.22;52.20;;;;;;;4.78;84.94;100893.75;1791408;80;21176;-86
2021/11/14 02:56:00;;;;;;;98.47;50.73;;;;;;;4.76;84.94;100898.77;1791634;80;21009;-86
2021/11/14 02:58:28;;;;;;;100.80;50.95;;;;;;;4.76;84.98;100905.38;1821433;78;21699;-86
2021/11/14 03:01:15;;;;;;;103.65;52.35;;;;;;;4.77;84.97;100904.42;1795236;79;21156;-86
2021/11/14 03:03:43;;;;;;;104.63;52.53;;;;;;;4.75;84.98;100903.72;1791117;80;21026;-86
2021/11/14 03:06:09;;;;;;;103.55;51.68;;;;;;;4.75;84.96;100898.43;1784966;79;21174;-86
2021/11/14 03:08:35;;;;;;;115.80;56.60;;;;;;;4.75;84.99;100904.53;1824318;78;21547;-86
2021/11/14 03:11:03;;;;;;;105.92;55.48;;;;;;;4.70;84.98;100900.58;1791779;80;20974;-86
2021/11/14 03:13:29;;;;;;;107.90;52.95;;;;;;;4.65;85.00;100902.73;1789296;80;21046;-86
2021/11/14 03:15:59;;;;;;;105.35;55.15;;;;;;;4.61;85.01;100905.27;1786117;80;21813;-87
2021/11/14 03:18:25;;;;;;;102.42;53.63;;;;;;;4.60;85.02;100910.19;1785850;79;21650;-86
2021/11/14 03:20:52;;;;;;;108.72;55.58;;;;;;;4.61;85.04;100912.69;1785009;79;21572;-87
2021/11/14 03:23:19;;;;;;;116.22;59.35;;;;;;;4.59;85.05;100912.45;1785688;80;20993;-86
2021/11/14 03:25:45;;;;;;;125.27;61.08;;;;;;;4.50;85.06;100916.16;1779103;79;21037;-86
2021/11/14 03:28:11;;;;;;;132.07;67.22;;;;;;;4.51;85.08;100927.09;1769742;81;21601;-86
2021/11/14 03:30:37;;;;;;;116.75;59.08;;;;;;;4.49;85.08;100934.31;1772202;79;22010;-85
2021/11/14 03:33:07;;;;;;;104.45;54.20;;;;;;;4.48;85.10;100932.62;1801081;79;21668;-86
2021/11/14 03:35:51;;;;;;;109.25;56.10;;;;;;;4.50;85.08;100935.97;1781665;79;21017;-86
2021/11/14 03:38:20;;;;;;;101.05;51.83;;;;;;;4.50;85.08;100935.97;1791956;80;21455;-86
2021/11/14 03:40:46;;;;;;;103.58;54.77;;;;;;;4.54;85.08;100937.42;1763809;81;21046;-86
2021/11/14 03:43:12;;;;;;;115.40;58.80;;;;;;;4.51;85.08;100930.21;1791526;78;21160;-86
2021/11/14 03:45:39;;;;;;;118.53;57.43;;;;;;;4.46;85.12;100929.27;1772141;79;21494;-86
2021/11/14 03:48:05;;;;;;;102.50;53.98;;;;;;;4.47;85.13;100934.05;1824377;78;21049;-86
2021/11/14 03:50:32;;;;;;;107.70;54.13;;;;;;;4.46;85.12;100933.70;1791223;80;20983;-86
2021/11/14 03:52:58;;;;;;;109.03;56.28;;;;;;;4.41;85.10;100939.33;1792007;80;21096;-86
2021/11/14 03:55:24;;;;;;;130.45;62.67;;;;;;;4.40;85.08;100934.99;1818708;78;21206;-86
2021/11/14 03:57:50;;;;;;;135.05;67.80;;;;;;;4.33;85.07;100935.58;1822002;78;21068;-86
2021/11/14 04:00:20;;;;;;;123.20;62.53;;;;;;;4.28;85.07;100935.95;1795688;79;21538;-86
2021/11/14 04:02:48;;;;;;;127.00;62.27;;;;;;;4.30;85.08;100938.45;1824070;78;20978;-86
2021/11/14 04:05:14;;;;;;;124.65;61.65;;;;;;;4.31;85.13;100938.35;1791827;80;21018;-86
2021/11/14 04:07:40;;;;;;;118.40;59.05;;;;;;;4.32;85.15;100940.04;1791178;80;21572;-85
2021/11/14 04:10:07;;;;;;;123.15;61.08;;;;;;;4.33;85.12;100939.06;1805319;78;21035;-85
2021/11/14 04:12:34;;;;;;;112.68;57.65;;;;;;;4.34;85.15;100943.87;1810294;79;21003;-85
2021/11/14 04:15:00;;;;;;;115.00;59.03;;;;;;;4.34;85.14;100947.36;1791168;80;20983;-85
2021/11/14 04:17:26;;;;;;;145.72;67.05;;;;;;;4.37;85.16;100949.76;1791631;79;21112;-85
2021/11/14 04:19:52;;;;;;;160.07;78.55;;;;;;;4.45;85.17;100957.95;1791581;80;21194;-85
2021/11/14 04:22:18;;;;;;;157.32;78.55;;;;;;;4.53;85.17;100956.89;1791520;79;21093;-85
2021/11/14 04:24:44;;;;;;;143.13;74.40;;;;;;;4.62;85.18;100961.08;1801657;79;21050;-85
2021/11/14 04:27:10;;;;;;;124.78;66.95;;;;;;;4.70;85.17;100957.38;1823913;78;21001;-85
2021/11/14 04:29:36;;;;;;;119.10;64.72;;;;;;;4.72;85.17;100965.53;1791936;78;21470;-85
2021/11/14 04:32:02;;;;;;;127.22;63.92;;;;;;;4.74;85.19;100969.39;1763910;81;21640;-85
2021/11/14 04:34:28;;;;;;;124.40;63.00;;;;;;;4.79;85.21;100972.50;1797849;78;20997;-86
2021/11/14 04:36:54;;;;;;;124.85;66.40;;;;;;;4.82;85.24;100970.97;1824078;78;21432;-85
2021/11/14 04:39:21;;;;;;;133.22;67.25;;;;;;;4.82;85.24;100968.33;1789213;80;21020;-85
2021/11/14 04:41:47;;;;;;;126.87;65.83;;;;;;;4.85;85.26;100974.22;1779019;80;21015;-85
2021/11/14 04:44:13;;;;;;;124.12;67.08;;;;;;;4.89;85.23;100978.78;1786926;78;21096;-85
2021/11/14 04:46:39;;;;;;;129.63;69.77;;;;;;;4.89;85.24;100972.17;1795481;79;21065;-85
2021/11/14 04:49:05;;;;;;;138.82;69.85;;;;;;;4.84;85.24;100978.28;1763897;81;21485;-85
2021/11/14 04:51:31;;;;;;;136.43;67.15;;;;;;;4.79;85.26;100981.75;1795487;79;20962;-85
2021/11/14 04:53:57;;;;;;;113.22;57.08;;;;;;;4.80;85.29;100986.92;1763801;81;21040;-85
2021/11/14 04:56:23;;;;;;;122.53;63.52;;;;;;;4.73;85.24;100979.11;1795614;79;21173;-85
2021/11/14 04:58:50;;;;;;;115.70;58.73;;;;;;;4.67;85.24;100980.92;1764660;79;20994;-85
2021/11/14 05:01:16;;;;;;;125.25;63.95;;;;;;;4.66;85.29;100979.22;1803422;78;21021;-85
2021/11/14 05:03:42;;;;;;;123.85;64.17;;;;;;;4.65;85.26;100989.89;1795355;79;21499;-85
2021/11/14 05:06:09;;;;;;;117.33;60.95;;;;;;;4.64;85.26;100995.69;1795507;79;21022;-85
2021/11/14 05:08:36;;;;;;;199.97;89.30;;;;;;;4.68;85.30;100994.97;1795597;79;21802;-85
2021/11/14 05:11:02;;;;;;;213.20;88.62;;;;;;;4.75;85.30;100997.00;1795260;79;21013;-85
2021/11/14 05:13:28;;;;;;;244.57;105.05;;;;;;;4.82;85.29;100994.75;1789709;79;21565;-85
2021/11/14 05:15:54;;;;;;;227.53;92.75;;;;;;;4.85;85.29;100998.00;1789333;79;21067;-85
2021/11/14 05:18:21;;;;;;;183.05;80.72;;;;;;;4.89;85.32;101005.20;1789857;80;21039;-86
2021/11/14 05:20:47;;;;;;;152.80;72.12;;;;;;;4.87;85.34;101005.78;1789285;80;21547;-85
2021/11/14 05:23:17;;;;;;;150.30;72.10;;;;;;;4.84;85.34;101006.03;1800071;78;21006;-85
2021/11/14 05:25:41;;;;;;;131.50;63.35;;;;;;;4.81;85.34;101007.59;1826968;78;20983;-85
2021/11/14 05:28:07;;;;;;;119.42;61.23;;;;;;;4.81;85.35;101004.95;1827520;78;21641;-85
2021/11/14 05:30:33;;;;;;;115.32;57.15;;;;;;;4.79;85.33;101008.17;1808585;78;21053;-85
2021/11/14 05:32:59;;;;;;;116.80;55.30;;;;;;;4.75;85.35;101006.75;1764531;79;21239;-85
2021/11/14 05:35:25;;;;;;;141.22;68.47;;;;;;;4.69;85.36;101015.12;1830460;77;21014;-84
2021/11/14 05:37:51;;;;;;;137.55;65.95;;;;;;;4.58;85.34;101015.09;1822706;78;21482;-85
2021/11/14 05:40:17;;;;;;;128.78;61.28;;;;;;;4.53;85.36;101017.63;1829247;78;21463;-86
2021/11/14 05:42:43;;;;;;;134.87;63.25;;;;;;;4.47;85.35;101022.03;1822825;78;21687;-86
2021/11/14 05:45:09;;;;;;;126.67;58.80;;;;;;;4.39;85.33;101021.79;1836469;78;21623;-84
2021/11/14 05:47:36;;;;;;;126.65;57.03;;;;;;;4.32;85.35;101027.64;1821120;78;21054;-85
2021/11/14 05:50:04;;;;;;;125.78;59.45;;;;;;;4.22;85.35;101032.73;1823770;78;21030;-85
2021/11/14 05:52:30;;;;;;;143.05;69.22;;;;;;;4.17;85.32;101039.33;1791849;80;21490;-85
2021/11/14 05:54:56;;;;;;;143.70;68.15;;;;;;;4.10;85.36;101036.30;1791879;80;21537;-85
2021/11/14 05:57:22;;;;;;;139.68;69.27;;;;;;;4.12;85.34;101040.98;1818901;78;21063;-85
2021/11/14 05:59:56;;;;;;;144.55;69.35;;;;;;;4.14;85.34;101040.41;1781624;79;21016;-85
2021/11/14 06:02:38;;;;;;;130.50;64.72;;;;;;;4.18;85.32;101050.26;1802190;78;21680;-85
2021/11/14 06:07:30;;;;;;;121.75;61.77;;;;;;;4.20;85.33;101059.74;1716509;82;21069;-85
2021/11/14 06:09:57;;;;;;;123.60;60.83;;;;;;;4.24;85.31;101062.52;1762945;79;21663;-85
2021/11/14 06:12:23;;;;;;;132.15;64.25;;;;;;;4.24;85.32;101059.88;1780801;79;21077;-85
2021/11/14 06:14:50;;;;;;;147.10;69.50;;;;;;;4.24;85.32;101065.16;1798390;79;21049;-85
2021/11/14 06:17:17;;;;;;;152.65;75.65;;;;;;;4.19;85.31;101073.03;1822516;78;21487;-85
2021/11/14 06:19:43;;;;;;;156.32;77.92;;;;;;;4.14;85.31;101080.00;1792088;80;21018;-85
2021/11/14 06:22:09;;;;;;;152.75;76.55;;;;;;;4.15;85.33;101080.84;1792535;80;21135;-85
2021/11/14 06:24:35;;;;;;;134.20;69.15;;;;;;;4.19;85.33;101092.36;1792918;80;20974;-85
2021/11/14 06:27:01;;;;;;;133.87;69.50;;;;;;;4.20;85.35;101090.57;1825255;78;21472;-85
2021/11/14 06:29:27;;;;;;;138.72;68.75;;;;;;;4.21;85.33;101097.07;1792351;80;21010;-85
2021/11/14 06:31:53;;;;;;;130.63;66.40;;;;;;;4.19;85.32;101102.92;1823004;78;20847;-85
2021/11/14 06:34:19;;;;;;;131.12;68.55;;;;;;;4.20;85.33;101112.53;1771100;79;21007;-85
2021/11/14 06:36:45;;;;;;;129.15;67.35;;;;;;;4.27;85.31;101120.38;1792545;80;21018;-85
2021/11/14 06:39:11;;;;;;;125.15;63.00;;;;;;;4.31;85.30;101125.80;1761221;80;21128;-85
2021/11/14 06:41:38;;;;;;;126.55;66.22;;;;;;;4.30;85.29;101128.06;1792751;80;21513;-85
2021/11/14 06:44:04;;;;;;;116.20;63.73;;;;;;;4.27;85.30;101136.21;1792610;79;21041;-85
2021/11/14 06:46:30;;;;;;;119.53;65.15;;;;;;;4.29;85.31;101134.29;1793287;78;21953;-85
2021/11/14 06:48:56;;;;;;;120.20;63.10;;;;;;;4.36;85.30;101139.48;1759794;80;20965;-84
2021/11/14 06:51:23;;;;;;;118.47;61.40;;;;;;;4.39;85.31;101144.57;1761445;81;21470;-85
2021/11/14 06:53:48;;;;;;;125.78;62.83;;;;;;;4.43;85.32;101147.33;1792523;80;21046;-86
2021/11/14 06:56:15;;;;;;;125.87;62.93;;;;;;;4.44;85.32;101146.38;1759790;81;20998;-87
2021/11/14 06:58:41;;;;;;;117.57;61.20;;;;;;;4.52;85.32;101149.31;1761806;81;21081;-87
2021/11/14 07:01:07;;;;;;;121.95;61.70;;;;;;;4.60;85.31;101158.47;1818464;78;20956;-86
2021/11/14 07:03:33;;;;;;;122.00;65.17;;;;;;;4.60;85.28;101155.83;1825285;78;20979;-86
2021/11/14 07:05:59;;;;;;;118.17;64.30;;;;;;;4.64;85.29;101158.14;1796381;78;21010;-87
2021/11/14 07:08:25;;;;;;;120.35;64.45;;;;;;;4.60;85.35;101165.08;1780690;80;20970;-85
2021/11/14 07:10:51;;;;;;;126.27;66.20;;;;;;;4.62;85.34;101169.75;1761814;80;21088;-85
2021/11/14 07:13:17;;;;;;;128.02;67.47;;;;;;;4.65;85.36;101177.45;1792755;80;20958;-86
2021/11/14 07:15:43;;;;;;;130.80;68.72;;;;;;;4.68;85.34;101179.38;1792854;80;21044;-86
2021/11/14 07:18:09;;;;;;;138.72;75.57;;;;;;;4.69;85.32;101173.63;1792789;80;21896;-85
2021/11/14 07:20:37;;;;;;;140.52;77.08;;;;;;;4.69;85.33;101184.20;1764616;80;21101;-85
2021/11/14 07:23:04;;;;;;;145.53;74.58;;;;;;;4.77;85.32;101187.97;1793103;80;21568;-86
2021/11/14 07:25:30;;;;;;;144.00;75.97;;;;;;;4.81;85.31;101197.84;1797672;78;20987;-86
2021/11/14 07:27:56;;;;;;;174.80;83.20;;;;;;;4.86;85.32;101191.71;1825605;78;20924;-86
2021/11/14 07:30:23;;;;;;;152.22;75.20;;;;;;;4.88;85.33;101188.02;1824961;78;20983;-86
2021/11/14 07:32:50;;;;;;;150.85;71.77;;;;;;;4.90;85.34;101197.14;1825396;78;21496;-86
2021/11/14 07:35:17;;;;;;;209.20;97.02;;;;;;;4.91;85.34;101195.72;1825726;78;21940;-86
2021/11/14 07:37:44;;;;;;;187.85;92.57;;;;;;;4.93;85.35;101203.52;1825524;78;21006;-86
2021/11/14 07:40:11;;;;;;;183.95;88.75;;;;;;;4.93;85.36;101206.16;1821894;78;20947;-84
2021/11/14 07:42:37;;;;;;;167.72;79.67;;;;;;;4.95;85.32;101212.19;1759922;81;21375;-84
2021/11/14 07:45:06;;;;;;;151.82;76.22;;;;;;;4.95;85.30;101215.68;1763660;81;21051;-87
2021/11/14 07:47:33;;;;;;;143.57;75.65;;;;;;;4.91;85.28;101211.58;1800350;78;21490;-85
2021/11/14 07:49:59;;;;;;;152.47;76.35;;;;;;;4.94;85.32;101212.66;1763327;81;21041;-85
2021/11/14 07:52:26;;;;;;;145.35;77.27;;;;;;;4.96;85.32;101217.84;1765101;81;20976;-87
2021/11/14 07:54:52;;;;;;;146.53;77.10;;;;;;;4.95;85.33;101217.48;1796341;79;20997;-86
2021/11/14 07:57:18;;;;;;;140.12;71.90;;;;;;;4.93;85.30;101221.55;1764432;79;21517;-86
2021/11/14 07:59:46;;;;;;;143.17;74.58;;;;;;;4.94;85.31;101226.35;1783611;79;21016;-87
2021/11/14 08:02:12;;;;;;;139.12;73.72;;;;;;;4.95;85.29;101230.69;1774405;79;21070;-85
2021/11/14 08:04:38;;;;;;;152.27;75.50;;;;;;;4.96;85.28;101227.10;1796191;79;20989;-85
2021/11/14 08:07:05;;;;;;;152.27;77.70;;;;;;;4.99;85.29;101225.55;1765141;81;20989;-85
2021/11/14 08:09:31;;;;;;;154.20;78.80;;;;;;;5.04;85.27;101224.70;1797215;78;20963;-85
2021/11/14 08:11:57;;;;;;;154.82;77.87;;;;;;;5.03;85.26;101224.37;1763158;81;21851;-85
2021/11/14 08:14:23;;;;;;;152.05;74.67;;;;;;;5.02;85.25;101235.41;1765119;81;21041;-85
2021/11/14 08:16:49;;;;;;;162.10;78.37;;;;;;;5.04;85.26;101235.28;1796756;79;21021;-85
2021/11/14 08:19:15;;;;;;;160.20;76.20;;;;;;;4.92;85.25;101239.70;1763573;81;20970;-85
2021/11/14 08:21:41;;;;;;;163.60;80.12;;;;;;;4.84;85.23;101239.41;1765295;81;20988;-85
2021/11/14 08:24:08;;;;;;;157.80;77.70;;;;;;;4.82;85.22;101244.45;1810465;78;21356;-85
2021/11/14 08:26:34;;;;;;;149.15;74.32;;;;;;;4.78;85.24;101251.76;1828856;78;21042;-85
2021/11/14 08:29:00;;;;;;;166.97;80.10;;;;;;;4.76;85.24;101251.48;1829165;78;20955;-85
2021/11/14 08:31:27;;;;;;;156.25;78.10;;;;;;;4.70;85.23;101254.58;1828729;78;20983;-85
2021/11/14 08:33:53;;;;;;;180.25;85.97;;;;;;;4.64;85.23;101251.07;1828864;78;21006;-86
2021/11/14 08:36:19;;;;;;;180.45;86.80;;;;;;;4.60;85.20;101253.56;1829189;78;21144;-84
2021/11/14 08:38:45;;;;;;;180.00;91.70;;;;;;;4.61;85.21;101261.36;1817141;78;20986;-87
2021/11/14 08:41:11;;;;;;;186.82;90.70;;;;;;;4.61;85.20;101261.36;1763163;81;21013;-86
2021/11/14 08:43:40;;;;;;;168.78;85.00;;;;;;;4.58;85.17;101271.30;1764784;81;21013;-86
2021/11/14 08:46:08;;;;;;;144.10;74.15;;;;;;;4.46;85.11;101273.05;1772129;79;21061;-85
2021/11/14 08:48:34;;;;;;;138.80;70.80;;;;;;;4.29;85.09;101280.00;1739038;81;21378;-86
2021/11/14 08:51:00;;;;;;;135.57;70.50;;;;;;;4.04;85.07;101288.79;1769604;79;20994;-85
2021/11/14 08:53:26;;;;;;;135.60;73.60;;;;;;;3.87;85.05;101287.80;1737354;82;21034;-85
2021/11/14 08:55:57;;;;;;;138.12;71.12;;;;;;;3.81;85.05;101292.14;1770221;79;20994;-86
2021/11/14 08:58:24;;;;;;;139.28;72.80;;;;;;;3.74;85.02;101294.83;1791153;79;20990;-85
2021/11/14 09:00:50;;;;;;;145.57;74.42;;;;;;;3.66;85.02;101305.08;1790557;79;21080;-86
2021/11/14 09:03:16;;;;;;;136.50;72.08;;;;;;;3.55;85.00;101302.31;1790954;79;20958;-87
2021/11/14 09:05:42;;;;;;;128.70;69.97;;;;;;;3.51;84.98;101310.44;1790958;79;20986;-86
2021/11/14 09:08:08;;;;;;;144.57;69.58;;;;;;;3.47;84.94;101311.58;1755634;81;20991;-86
2021/11/14 09:10:35;;;;;;;140.77;74.05;;;;;;;3.38;84.92;101314.81;1802661;78;21027;-86
2021/11/14 09:13:02;;;;;;;136.25;70.70;;;;;;;3.28;84.89;101320.32;1786855;80;21039;-86
2021/11/14 09:15:32;;;;;;;143.82;74.70;;;;;;;3.26;84.84;101327.97;1823296;78;21564;-86
2021/11/14 09:17:58;;;;;;;143.30;73.62;;;;;;;3.25;84.83;101329.75;1786585;80;21004;-86
2021/11/14 09:20:24;;;;;;;129.05;66.77;;;;;;;3.28;84.84;101333.50;1794632;78;20966;-84
2021/11/14 09:22:50;;;;;;;134.32;72.45;;;;;;;3.19;84.80;101332.80;1755560;81;21534;-85
2021/11/14 09:25:17;;;;;;;124.55;68.60;;;;;;;3.14;84.81;101333.55;1769285;81;21861;-84
2021/11/14 09:27:43;;;;;;;118.72;66.22;;;;;;;3.18;84.80;101338.16;1755564;81;21042;-86
2021/11/14 09:30:10;;;;;;;113.55;64.97;;;;;;;3.11;84.77;101342.98;1791065;80;21042;-84
2021/11/14 09:32:37;;;;;;;114.22;61.95;;;;;;;3.04;84.74;101350.91;1757937;80;21432;-85
2021/11/14 09:35:04;;;;;;;106.45;58.95;;;;;;;3.00;84.73;101350.73;1823187;78;21013;-85
2021/11/14 09:37:30;;;;;;;110.42;59.50;;;;;;;3.00;84.72;101354.21;1786553;80;21819;-86
2021/11/14 09:39:56;;;;;;;105.30;59.35;;;;;;;3.02;84.71;101354.12;1822641;78;20973;-85
2021/11/14 09:42:25;;;;;;;109.42;59.65;;;;;;;3.07;84.69;101361.72;1786725;80;21547;-86
2021/11/14 09:44:52;;;;;;;89.90;49.20;;;;;;;3.10;84.67;101369.45;1824033;78;21418;-86
2021/11/14 09:47:18;;;;;;;107.60;60.08;;;;;;;3.10;84.66;101366.81;1813724;78;20989;-85
2021/11/14 09:49:44;;;;;;;141.35;71.90;;;;;;;3.15;84.63;101356.34;1795877;79;21147;-85
2021/11/14 09:52:13;;;;;;;168.02;80.25;;;;;;;3.19;84.60;101359.63;1796329;78;21017;-86
2021/11/14 09:54:40;;;;;;;241.53;98.12;;;;;;;3.21;84.58;101364.30;1796138;80;21100;-86
2021/11/14 09:57:07;;;;;;;184.00;86.15;;;;;;;3.24;84.55;101362.31;1797834;78;21017;-85
2021/11/14 09:59:33;;;;;;;160.22;73.50;;;;;;;3.27;84.51;101364.75;1796270;79;21084;-86
2021/11/14 10:02:00;;;;;;;111.88;62.75;;;;;;;3.33;84.50;101361.73;1795922;79;21128;-85
2021/11/14 10:04:27;;;;;;;109.87;58.20;;;;;;;3.43;84.49;101367.25;1769051;79;21543;-84
2021/11/14 10:07:03;;;;;;;119.08;63.75;;;;;;;3.49;84.51;101365.52;1795861;79;21446;-85
2021/11/14 10:09:32;;;;;;;136.80;73.85;;;;;;;3.47;84.48;101364.78;1795184;79;21482;-83
2021/11/14 10:12:00;;;;;;;111.88;62.45;;;;;;;3.53;84.43;101373.13;1815589;78;21033;-83
2021/11/14 10:14:26;;;;;;;113.37;62.78;;;;;;;3.56;84.38;101375.19;1791471;78;21261;-82
2021/11/14 10:16:52;;;;;;;114.82;59.42;;;;;;;3.60;84.37;101370.08;1801429;78;21022;-85
2021/11/14 10:19:18;;;;;;;128.90;67.00;;;;;;;3.62;84.38;101366.89;1769636;78;21064;-85
2021/11/14 10:21:45;;;;;;;115.47;62.90;;;;;;;3.56;84.36;101369.44;1800592;78;21037;-86
2021/11/14 10:24:12;;;;;;;116.67;65.10;;;;;;;3.56;84.30;101369.91;1770271;78;21005;-85
2021/11/14 10:26:38;;;;;;;127.75;69.35;;;;;;;3.51;84.27;101370.23;1798415;78;21121;-87
2021/11/14 10:29:12;;;;;;;124.53;68.20;;;;;;;3.51;84.25;101363.64;1825828;78;21010;-85
2021/11/14 10:31:39;;;;;;;134.20;73.15;;;;;;;3.47;84.21;101368.73;1825333;77;21525;-84
2021/11/14 10:43:48;;;;;;;132.07;66.75;;;;;;;3.25;84.12;101377.66;1822852;78;22624;-78
2021/11/14 10:46:20;;;;;;;128.18;65.22;;;;;;;3.12;84.08;101385.53;1790797;80;20920;-76
2021/11/14 10:48:46;;;;;;;129.87;69.58;;;;;;;3.06;84.06;101384.61;1794563;79;21986;-77
2021/11/14 10:51:13;;;;;;;136.00;69.87;;;;;;;3.01;84.07;101380.09;1795770;80;21012;-77
2021/11/14 10:53:41;;;;;;;146.22;77.08;;;;;;;2.97;84.03;101387.34;1795697;79;20987;-76
2021/11/14 10:56:09;;;;;;;142.65;77.65;;;;;;;2.91;84.01;101386.89;1791246;79;21680;-76
2021/11/14 10:58:35;;;;;;;123.25;68.45;;;;;;;2.88;84.01;101396.31;1791268;80;20991;-76
2021/11/14 11:01:05;;;;;;;121.37;64.70;;;;;;;2.87;83.97;101405.14;1791078;80;21126;-78
2021/11/14 11:03:41;;;;;;;123.10;65.90;;;;;;;2.82;83.96;101400.62;1784808;80;20925;-77
2021/11/14 11:06:09;;;;;;;113.85;62.10;;;;;;;2.80;83.95;101399.41;1762906;81;21536;-78
2021/11/14 11:08:36;;;;;;;117.35;59.90;;;;;;;2.77;83.98;101401.39;1766207;80;21112;-78
2021/11/14 11:11:05;;;;;;;100.15;53.28;;;;;;;2.76;83.97;101397.06;1787421;80;20991;-78
2021/11/14 11:13:35;;;;;;;101.95;56.75;;;;;;;2.71;83.95;101402.61;1791354;80;21649;-78
2021/11/14 11:16:06;;;;;;;111.20;62.08;;;;;;;2.68;83.94;101405.90;1775191;80;21019;-79
2021/11/14 11:18:32;;;;;;;107.43;59.95;;;;;;;2.64;83.92;101405.73;1785771;80;21034;-79
2021/11/14 11:21:02;;;;;;;114.00;61.50;;;;;;;2.62;83.89;101401.02;1794261;80;21025;-79